createdAt,value
2018-10-02T00:00:48.495Z,6.97
2018-10-02T00:03:17.775Z,4.90
2018-10-02T00:05:46.995Z,7.13
2018-10-02T00:08:16.335Z,10.03
2018-10-02T00:10:51.055Z,9.47
2018-10-02T00:13:25.486Z,8.07
2018-10-02T00:15:54.728Z,9.07
2018-10-02T00:18:24.350Z,5.63
2018-10-02T00:20:54.300Z,9.43
2018-10-02T00:23:23.561Z,8.90
2018-10-02T00:25:52.765Z,9.63
2018-10-02T00:28:22.005Z,9.80
2018-10-02T00:30:51.447Z,5.47
2018-10-02T00:33:20.678Z,5.33
2018-10-02T00:35:50.047Z,12.37
2018-10-02T00:38:19.271Z,9.73
2018-10-02T00:40:48.495Z,5.23
2018-10-02T00:43:17.707Z,10.03
2018-10-02T00:45:46.927Z,6.83
2018-10-02T00:48:16.222Z,6.10
2018-10-02T00:50:45.432Z,5.23
2018-10-02T00:53:14.651Z,11.80
2018-10-02T00:55:43.852Z,6.73
2018-10-02T00:58:13.073Z,6.80
2018-10-02T01:00:42.393Z,2.90
2018-10-02T01:03:11.599Z,6.17
2018-10-02T01:05:40.912Z,6.70
2018-10-02T01:08:10.252Z,7.67
2018-10-02T01:10:39.491Z,7.10
2018-10-02T01:13:08.699Z,8.30
2018-10-02T01:15:37.994Z,11.27
2018-10-02T01:18:07.832Z,7.20
2018-10-02T01:20:37.098Z,9.33
2018-10-02T01:23:06.364Z,13.17
2018-10-02T01:25:35.626Z,7.20
2018-10-02T01:28:04.835Z,8.23
2018-10-02T01:30:34.083Z,8.57
2018-10-02T01:33:03.979Z,8.30
2018-10-02T01:35:33.287Z,9.13
2018-10-02T01:38:02.522Z,7.83
2018-10-02T01:40:31.748Z,9.97
2018-10-02T01:43:00.983Z,10.83
2018-10-02T01:45:30.187Z,9.67
2018-10-02T01:47:59.413Z,8.63
2018-10-02T01:50:28.711Z,10.97
2018-10-02T01:52:58.208Z,9.17
2018-10-02T01:55:27.458Z,10.10
2018-10-02T01:57:56.730Z,10.77
2018-10-02T02:00:26.587Z,7.73
2018-10-02T02:02:55.847Z,7.77
2018-10-02T02:05:25.030Z,10.37
2018-10-02T02:07:54.256Z,10.93
2018-10-02T02:10:23.480Z,7.07
2018-10-02T02:12:52.684Z,8.23
2018-10-02T02:15:21.908Z,9.83
2018-10-02T02:17:51.115Z,8.60
2018-10-02T02:20:20.355Z,6.30
2018-10-02T02:22:49.581Z,8.20
2018-10-02T02:25:18.787Z,7.63
2018-10-02T02:27:48.059Z,10.13
2018-10-02T02:30:17.883Z,9.00
2018-10-02T02:32:47.108Z,8.47
2018-10-02T02:35:16.422Z,10.23
2018-10-02T02:37:45.777Z,7.97
2018-10-02T02:40:14.988Z,7.03
2018-10-02T02:42:44.254Z,7.27
2018-10-02T02:45:13.496Z,7.97
2018-10-02T02:47:48.731Z,10.13
2018-10-02T02:50:23.527Z,8.23
2018-10-02T02:52:59.370Z,6.90
2018-10-02T02:55:28.870Z,10.77
2018-10-02T02:57:58.088Z,6.30
2018-10-02T03:00:27.361Z,6.67
2018-10-02T03:02:56.560Z,7.63
2018-10-02T03:05:25.787Z,6.37
2018-10-02T03:07:55.031Z,7.73
2018-10-02T03:10:24.242Z,7.70
2018-10-02T03:12:53.452Z,6.63
2018-10-02T03:15:22.664Z,5.53
2018-10-02T03:17:51.887Z,7.40
2018-10-02T03:20:21.118Z,7.67
2018-10-02T03:22:50.339Z,9.20
2018-10-02T03:25:19.603Z,6.90
2018-10-02T03:27:48.819Z,8.37
2018-10-02T03:30:18.041Z,11.57
2018-10-02T03:32:47.267Z,9.40
2018-10-02T03:35:16.468Z,8.33
2018-10-02T03:37:45.717Z,9.97
2018-10-02T03:40:14.960Z,7.20
2018-10-02T03:42:44.197Z,8.30
2018-10-02T03:45:13.400Z,12.03
2018-10-02T03:47:42.668Z,9.13
2018-10-02T03:50:11.883Z,9.53
2018-10-02T03:52:41.114Z,10.30
2018-10-02T03:55:10.328Z,7.37
2018-10-02T03:57:39.549Z,8.47
2018-10-02T04:00:08.815Z,8.90
2018-10-02T04:02:38.086Z,13.37
2018-10-02T04:05:07.357Z,10.50
2018-10-02T04:07:36.601Z,9.80
2018-10-02T04:10:05.860Z,9.67
2018-10-02T04:12:35.089Z,10.80
2018-10-02T04:15:04.577Z,7.90
2018-10-02T04:17:33.892Z,11.70
2018-10-02T04:20:03.271Z,9.30
2018-10-02T04:22:32.504Z,9.37
2018-10-02T04:25:01.819Z,10.67
2018-10-02T04:27:31.084Z,10.63
2018-10-02T04:30:00.393Z,7.77
2018-10-02T04:32:29.604Z,10.27
2018-10-02T04:34:58.820Z,10.47
2018-10-02T04:37:28.052Z,11.97
2018-10-02T04:39:57.259Z,11.00
2018-10-02T04:42:26.492Z,9.97
2018-10-02T04:44:55.688Z,10.50
2018-10-02T04:47:24.905Z,12.37
2018-10-02T04:49:54.181Z,12.63
2018-10-02T04:52:23.440Z,11.97
2018-10-02T04:54:52.729Z,13.10
2018-10-02T04:57:22.047Z,14.07
2018-10-02T04:59:51.271Z,11.47
2018-10-02T05:02:20.610Z,12.80
2018-10-02T05:04:50.603Z,14.10
2018-10-02T05:07:19.831Z,10.67
2018-10-02T05:09:49.112Z,11.23
2018-10-02T05:12:18.433Z,9.53
2018-10-02T05:14:47.669Z,10.80
2018-10-02T05:17:17.664Z,10.67
2018-10-02T05:19:46.876Z,12.77
2018-10-02T05:22:16.136Z,12.73
2018-10-02T05:24:45.360Z,11.77
2018-10-02T05:27:14.602Z,13.00
2018-10-02T05:29:44.644Z,12.77
2018-10-02T05:32:13.876Z,13.53
2018-10-02T05:34:43.085Z,17.00
2018-10-02T05:37:12.304Z,13.97
2018-10-02T05:39:41.530Z,14.97
2018-10-02T05:42:10.848Z,12.67
2018-10-02T05:44:40.067Z,15.17
2018-10-02T05:47:09.332Z,16.17
2018-10-02T05:49:38.595Z,19.57
2018-10-02T05:52:07.844Z,16.73
2018-10-02T05:54:37.077Z,18.57
2018-10-02T05:57:06.405Z,18.43
2018-10-02T05:59:36.472Z,19.43
2018-10-02T06:02:05.870Z,18.23
2018-10-02T06:04:35.689Z,19.63
2018-10-02T06:07:04.993Z,22.23
2018-10-02T06:09:34.262Z,21.60
2018-10-02T06:12:04.307Z,23.17
2018-10-02T06:14:33.552Z,20.27
2018-10-02T06:17:02.854Z,26.47
2018-10-02T06:19:32.077Z,24.13
2018-10-02T06:22:01.335Z,25.13
2018-10-02T06:24:30.664Z,23.40
2018-10-02T06:26:59.880Z,23.60
2018-10-02T06:29:29.137Z,32.87
2018-10-02T06:31:58.380Z,26.07
2018-10-02T06:34:28.224Z,23.77
2018-10-02T06:36:58.609Z,25.70
2018-10-02T06:39:30.583Z,25.87
2018-10-02T06:42:00.693Z,26.87
2018-10-02T06:44:30.911Z,28.87
2018-10-02T06:47:00.144Z,28.67
2018-10-02T06:49:29.392Z,26.17
2018-10-02T06:51:58.814Z,26.07
2018-10-02T06:54:27.996Z,28.07
2018-10-02T06:56:57.301Z,27.77
2018-10-02T06:59:26.509Z,27.80
2018-10-02T07:01:55.785Z,27.90
2018-10-02T07:04:25.062Z,28.97
2018-10-02T07:06:54.457Z,28.73
2018-10-02T07:09:23.835Z,30.37
2018-10-02T07:11:53.052Z,28.20
2018-10-02T07:14:22.339Z,26.50
2018-10-02T07:16:51.559Z,26.83
2018-10-02T07:19:20.796Z,26.83
2018-10-02T07:21:50.052Z,27.87
2018-10-02T07:24:19.444Z,24.80
2018-10-02T07:26:48.881Z,25.60
2018-10-02T07:29:17.983Z,27.37
2018-10-02T07:31:47.227Z,25.87
2018-10-02T07:34:16.457Z,26.57
2018-10-02T07:36:45.760Z,24.40
2018-10-02T07:39:14.979Z,27.27
2018-10-02T07:41:44.317Z,26.00
2018-10-02T07:44:13.450Z,22.73
2018-10-02T07:46:42.903Z,25.33
2018-10-02T07:49:12.136Z,24.73
2018-10-02T07:51:41.364Z,22.87
2018-10-02T07:54:10.650Z,24.23
2018-10-02T07:56:39.982Z,23.33
2018-10-02T07:59:09.208Z,24.43
2018-10-02T08:01:38.476Z,24.30
2018-10-02T08:04:07.798Z,24.27
2018-10-02T08:06:37.045Z,23.10
2018-10-02T08:09:09.157Z,23.57
2018-10-02T08:11:38.616Z,20.77
2018-10-02T08:14:08.276Z,20.70
2018-10-02T08:16:38.044Z,21.27
2018-10-02T08:19:07.295Z,21.50
2018-10-02T08:21:36.606Z,22.60
2018-10-02T08:24:05.944Z,20.20
2018-10-02T08:26:35.099Z,19.37
2018-10-02T08:29:04.352Z,19.13
2018-10-02T08:31:34.200Z,19.27
2018-10-02T08:34:03.630Z,18.47
2018-10-02T08:36:37.289Z,17.70
2018-10-02T08:39:08.917Z,17.97
2018-10-02T08:41:38.478Z,17.03
2018-10-02T08:44:08.415Z,17.33
2018-10-02T08:46:37.653Z,17.37
2018-10-02T08:49:06.900Z,16.57
2018-10-02T08:51:36.191Z,16.70
2018-10-02T08:54:05.508Z,15.67
2018-10-02T08:56:34.876Z,14.30
2018-10-02T08:59:04.321Z,14.67
2018-10-02T09:01:33.559Z,14.07
2018-10-02T09:04:02.923Z,13.53
2018-10-02T09:06:32.849Z,13.93
2018-10-02T09:09:02.207Z,14.03
2018-10-02T09:11:31.497Z,12.80
2018-10-02T09:14:00.888Z,13.63
2018-10-02T09:16:30.280Z,11.80
2018-10-02T09:18:59.522Z,11.23
2018-10-02T09:21:28.762Z,10.17
2018-10-02T09:23:58.271Z,11.20
2018-10-02T09:26:27.463Z,10.40
2018-10-02T09:28:56.783Z,10.23
2018-10-02T09:31:31.268Z,8.37
2018-10-02T09:34:05.764Z,7.77
2018-10-02T09:36:40.614Z,6.67
2018-10-02T09:39:15.371Z,5.43
2018-10-02T09:41:49.935Z,5.20
2018-10-02T09:44:20.085Z,6.03
2018-10-02T09:46:49.352Z,4.07
2018-10-02T09:49:18.655Z,3.97
2018-10-02T09:51:47.918Z,4.10
2018-10-02T09:54:17.201Z,4.00
2018-10-02T09:56:46.588Z,4.30
2018-10-02T09:59:16.495Z,3.97
2018-10-02T10:01:51.139Z,4.10
2018-10-02T10:04:20.573Z,4.03
2018-10-02T10:06:49.776Z,5.43
2018-10-02T10:09:19.017Z,3.77
2018-10-02T10:11:48.265Z,4.43
2018-10-02T10:14:18.228Z,4.50
2018-10-02T10:16:47.675Z,6.43
2018-10-02T10:19:16.864Z,6.20
2018-10-02T10:21:46.125Z,5.37
2018-10-02T10:24:15.454Z,6.73
2018-10-02T10:26:44.829Z,7.13
2018-10-02T10:29:14.059Z,6.20
2018-10-02T10:31:43.406Z,10.20
2018-10-02T10:34:13.089Z,12.07
2018-10-02T10:36:42.357Z,15.37
2018-10-02T10:39:11.949Z,14.83
2018-10-02T10:41:41.754Z,17.83
2018-10-02T10:44:11.015Z,15.13
2018-10-02T10:46:40.893Z,25.83
2018-10-02T10:49:10.105Z,23.10
2018-10-02T10:51:39.377Z,17.03
2018-10-02T10:54:08.772Z,23.27
2018-10-02T10:56:38.100Z,16.30
2018-10-02T10:59:07.351Z,19.47
2018-10-02T11:01:36.564Z,18.83
2018-10-02T11:04:05.844Z,16.07
2018-10-02T11:06:35.090Z,15.50
2018-10-02T11:09:06.082Z,11.63
2018-10-02T11:11:35.927Z,16.87
2018-10-02T11:14:05.732Z,18.87
2018-10-02T11:16:34.929Z,17.73
2018-10-02T11:19:04.191Z,16.70
2018-10-02T11:21:33.497Z,19.10
2018-10-02T11:24:02.807Z,15.43
2018-10-02T11:26:32.051Z,14.57
2018-10-02T11:29:01.314Z,15.13
2018-10-02T11:31:30.818Z,11.50
2018-10-02T11:34:00.003Z,15.20
2018-10-02T11:36:29.253Z,13.13
2018-10-02T11:38:58.799Z,12.87
2018-10-02T11:41:28.112Z,12.10
2018-10-02T11:43:57.393Z,13.10
2018-10-02T11:46:26.764Z,17.83
2018-10-02T11:48:56.029Z,18.80
2018-10-02T11:51:25.940Z,22.10
2018-10-02T11:53:55.264Z,21.93
2018-10-02T11:56:26.249Z,17.70
2018-10-02T11:58:55.534Z,20.63
2018-10-02T12:01:24.852Z,22.33
2018-10-02T12:03:54.604Z,16.90
2018-10-02T12:06:24.044Z,16.20
2018-10-02T12:08:53.341Z,19.97
2018-10-02T12:11:22.551Z,18.93
2018-10-02T12:13:51.820Z,18.80
2018-10-02T12:16:21.034Z,22.30
2018-10-02T12:18:50.295Z,21.97
2018-10-02T12:21:19.538Z,18.87
2018-10-02T12:23:48.845Z,15.23
2018-10-02T12:26:18.014Z,16.77
2018-10-02T12:28:47.361Z,16.73
2018-10-02T12:31:16.726Z,17.27
2018-10-02T12:33:45.878Z,21.30
2018-10-02T12:36:15.128Z,21.30
2018-10-02T12:38:44.458Z,19.87
2018-10-02T12:41:13.614Z,13.57
2018-10-02T12:43:42.956Z,20.43
2018-10-02T12:46:12.299Z,21.43
2018-10-02T12:48:41.459Z,23.50
2018-10-02T12:51:10.983Z,23.10
2018-10-02T12:53:40.545Z,26.77
2018-10-02T12:56:09.833Z,23.57
2018-10-02T12:58:40.075Z,30.33
2018-10-02T13:01:09.784Z,27.40
2018-10-02T13:03:39.039Z,18.70
2018-10-02T13:06:08.364Z,20.30
2018-10-02T13:08:37.672Z,27.97
2018-10-02T13:11:06.936Z,20.07
2018-10-02T13:13:36.497Z,25.50
2018-10-02T13:16:05.744Z,24.40
2018-10-02T13:18:35.052Z,20.27
2018-10-02T13:21:04.316Z,26.83
2018-10-02T13:23:33.646Z,21.13
2018-10-02T13:26:02.900Z,25.03
2018-10-02T13:28:32.169Z,17.57
2018-10-02T13:31:01.500Z,17.87
2018-10-02T13:33:30.748Z,26.33
2018-10-02T13:36:00.028Z,22.20
2018-10-02T13:38:29.324Z,18.30
2018-10-02T13:40:58.637Z,25.30
2018-10-02T13:43:27.930Z,22.50
2018-10-02T13:45:57.336Z,27.50
2018-10-02T13:48:26.661Z,21.60
2018-10-02T13:50:55.912Z,23.77
2018-10-02T13:53:25.201Z,21.57
2018-10-02T13:55:54.438Z,22.63
2018-10-02T13:58:23.739Z,19.93
2018-10-02T14:00:53.000Z,22.63
2018-10-02T14:03:22.391Z,26.07
2018-10-02T14:05:51.746Z,25.47
2018-10-02T14:08:21.056Z,21.83
2018-10-02T14:10:51.765Z,26.77
2018-10-02T14:13:21.110Z,18.33
2018-10-02T14:15:50.353Z,20.43
2018-10-02T14:18:19.668Z,19.93
2018-10-02T14:20:48.956Z,21.60
2018-10-02T14:23:18.261Z,18.77
2018-10-02T14:25:47.542Z,21.47
2018-10-02T14:28:16.815Z,13.33
2018-10-02T14:30:46.078Z,17.40
2018-10-02T14:33:15.438Z,19.77
2018-10-02T14:35:44.675Z,16.83
2018-10-02T14:38:13.984Z,17.43
2018-10-02T14:40:43.752Z,22.10
2018-10-02T14:43:13.003Z,23.40
2018-10-02T14:45:42.226Z,20.53
2018-10-02T14:48:11.451Z,19.10
2018-10-02T14:50:40.708Z,22.30
2018-10-02T14:53:10.057Z,21.93
2018-10-02T14:55:39.533Z,25.00
2018-10-02T14:58:09.196Z,23.40
2018-10-02T15:00:38.464Z,27.47
2018-10-02T15:03:07.776Z,21.50
2018-10-02T15:05:37.007Z,25.63
2018-10-02T15:08:06.348Z,19.80
2018-10-02T15:10:35.772Z,24.90
2018-10-02T15:13:04.997Z,28.17
2018-10-02T15:15:34.280Z,25.77
2018-10-02T15:18:03.649Z,25.67
2018-10-02T15:20:32.923Z,23.47
2018-10-02T15:23:02.276Z,17.33
2018-10-02T15:25:31.604Z,19.27
2018-10-02T15:28:01.549Z,28.50
2018-10-02T15:30:31.106Z,26.53
2018-10-02T15:33:00.415Z,19.87
2018-10-02T15:35:29.789Z,22.27
2018-10-02T15:37:59.102Z,20.97
2018-10-02T15:40:29.125Z,26.47
2018-10-02T15:42:58.535Z,22.57
2018-10-02T15:45:27.804Z,21.40
2018-10-02T15:47:57.068Z,20.43
2018-10-02T15:50:26.388Z,20.53
2018-10-02T15:52:55.766Z,20.17
2018-10-02T15:55:25.173Z,24.23
2018-10-02T15:57:54.434Z,26.10
2018-10-02T16:00:23.691Z,17.57
2018-10-02T16:02:52.945Z,25.50
2018-10-02T16:05:22.367Z,21.33
2018-10-02T16:07:51.659Z,24.80
2018-10-02T16:10:20.904Z,23.43
2018-10-02T16:12:50.927Z,22.97
2018-10-02T16:15:20.271Z,24.37
2018-10-02T16:17:49.654Z,21.60
2018-10-02T16:20:19.014Z,19.23
2018-10-02T16:22:48.252Z,20.53
2018-10-02T16:25:17.502Z,25.43
2018-10-02T16:27:46.799Z,26.77
2018-10-02T16:30:16.001Z,22.97
2018-10-02T16:32:45.235Z,22.60
2018-10-02T16:35:14.564Z,25.80
2018-10-02T16:37:43.975Z,22.77
2018-10-02T16:40:13.232Z,27.17
2018-10-02T16:42:42.491Z,30.87
2018-10-02T16:45:11.730Z,25.20
2018-10-02T16:47:40.969Z,24.27
2018-10-02T16:50:10.225Z,29.83
2018-10-02T16:52:39.500Z,24.33
2018-10-02T16:55:08.872Z,29.57
2018-10-02T16:57:38.188Z,26.80
2018-10-02T17:00:08.301Z,23.70
2018-10-02T17:02:37.752Z,29.33
2018-10-02T17:05:07.230Z,27.57
2018-10-02T17:07:36.614Z,18.67
2018-10-02T17:10:05.995Z,30.77
2018-10-02T17:12:35.986Z,17.50
2018-10-02T17:15:05.363Z,23.50
2018-10-02T17:17:34.612Z,19.80
2018-10-02T17:20:03.971Z,22.03
2018-10-02T17:22:33.436Z,22.50
2018-10-02T17:25:02.769Z,21.67
2018-10-02T17:27:32.067Z,19.10
2018-10-02T17:30:01.657Z,21.83
2018-10-02T17:32:30.887Z,23.13
2018-10-02T17:35:00.564Z,23.80
2018-10-02T17:37:29.898Z,18.60
2018-10-02T17:39:59.264Z,22.17
2018-10-02T17:42:28.593Z,19.43
2018-10-02T17:44:57.912Z,23.57
2018-10-02T17:47:27.313Z,19.87
2018-10-02T17:49:56.764Z,26.97
2018-10-02T17:52:26.181Z,23.63
2018-10-02T17:54:55.448Z,19.67
2018-10-02T17:57:24.747Z,22.17
2018-10-02T17:59:54.244Z,18.90
2018-10-02T18:02:23.610Z,22.80
2018-10-02T18:04:52.956Z,18.83
2018-10-02T18:07:22.401Z,19.90
2018-10-02T18:09:51.793Z,28.03
2018-10-02T18:12:21.283Z,28.50
2018-10-02T18:14:50.636Z,23.03
2018-10-02T18:17:20.118Z,22.83
2018-10-02T18:19:49.650Z,24.63
2018-10-02T18:22:19.012Z,24.03
2018-10-02T18:24:48.490Z,18.87
2018-10-02T18:27:18.573Z,19.40
2018-10-02T18:29:48.043Z,24.53
2018-10-02T18:32:17.403Z,22.97
2018-10-02T18:34:46.768Z,21.97
2018-10-02T18:37:16.641Z,18.23
2018-10-02T18:39:45.933Z,22.23
2018-10-02T18:42:15.311Z,21.50
2018-10-02T18:44:44.963Z,21.80
2018-10-02T18:47:14.370Z,24.00
2018-10-02T18:49:44.422Z,20.97
2018-10-02T18:52:13.707Z,25.60
2018-10-02T18:54:43.057Z,22.33
2018-10-02T18:57:13.094Z,21.87
2018-10-02T18:59:42.534Z,18.43
2018-10-02T19:02:11.803Z,21.67
2018-10-02T19:04:42.025Z,17.40
2018-10-02T19:07:11.710Z,22.57
2018-10-02T19:09:41.170Z,20.87
2018-10-02T19:12:13.581Z,17.80
2018-10-02T19:14:43.872Z,19.17
2018-10-02T19:17:13.251Z,20.90
2018-10-02T19:19:47.860Z,20.60
2018-10-02T19:22:17.217Z,21.13
2018-10-02T19:24:46.667Z,24.10
2018-10-02T19:27:16.136Z,17.17
2018-10-02T19:29:45.742Z,23.63
2018-10-02T19:32:17.374Z,18.57
2018-10-02T19:34:47.424Z,20.43
2018-10-02T19:37:22.063Z,20.63
2018-10-02T19:39:51.414Z,16.70
2018-10-02T19:42:20.698Z,21.83
2018-10-02T19:44:51.343Z,18.23
2018-10-02T19:47:20.758Z,20.43
2018-10-02T19:49:50.258Z,20.67
2018-10-02T19:52:19.636Z,18.50
2018-10-02T19:54:49.056Z,19.40
2018-10-02T19:57:19.108Z,16.50
2018-10-02T19:59:48.370Z,15.10
2018-10-02T20:02:17.788Z,13.07
2018-10-02T20:04:53.679Z,18.30
2018-10-02T20:07:23.092Z,16.67
2018-10-02T20:09:52.377Z,12.40
2018-10-02T20:12:21.837Z,14.97
2018-10-02T20:14:51.284Z,14.63
2018-10-02T20:17:20.539Z,13.70
2018-10-02T20:19:49.828Z,20.07
2018-10-02T20:22:19.177Z,16.87
2018-10-02T20:24:48.497Z,21.50
2018-10-02T20:27:18.315Z,21.23
2018-10-02T20:29:47.581Z,22.33
2018-10-02T20:32:16.823Z,20.03
2018-10-02T20:34:46.120Z,18.77
2018-10-02T20:37:15.396Z,15.97
2018-10-02T20:39:44.655Z,20.80
2018-10-02T20:42:13.927Z,16.40
2018-10-02T20:44:43.220Z,14.63
2018-10-02T20:47:12.538Z,18.17
2018-10-02T20:49:41.757Z,17.67
2018-10-02T20:52:11.142Z,17.10
2018-10-02T20:54:40.503Z,12.07
2018-10-02T20:57:09.867Z,16.47
2018-10-02T20:59:40.072Z,17.77
2018-10-02T21:02:09.343Z,17.87
2018-10-02T21:04:38.593Z,14.57
2018-10-02T21:07:07.904Z,15.10
2018-10-02T21:09:37.136Z,13.53
2018-10-02T21:12:06.393Z,18.23
2018-10-02T21:14:35.756Z,13.07
2018-10-02T21:17:05.045Z,11.00
2018-10-02T21:19:34.316Z,16.37
2018-10-02T21:22:04.414Z,13.93
2018-10-02T21:24:33.653Z,18.20
2018-10-02T21:27:02.911Z,15.87
2018-10-02T21:29:32.204Z,15.70
2018-10-02T21:32:01.549Z,17.90
2018-10-02T21:34:30.901Z,19.27
2018-10-02T21:37:00.144Z,20.33
2018-10-02T21:39:29.555Z,22.30
2018-10-02T21:41:58.792Z,21.87
2018-10-02T21:44:28.049Z,19.07
2018-10-02T21:46:57.609Z,18.83
2018-10-02T21:49:26.849Z,16.03
2018-10-02T21:51:56.088Z,13.37
2018-10-02T21:54:25.316Z,18.60
2018-10-02T21:56:54.650Z,15.07
2018-10-02T21:59:23.884Z,18.83
2018-10-02T22:01:53.220Z,16.23
2018-10-02T22:04:22.460Z,16.40
2018-10-02T22:06:51.679Z,15.63
2018-10-02T22:09:21.576Z,14.80
2018-10-02T22:11:50.820Z,16.93
2018-10-02T22:14:20.708Z,20.63
2018-10-02T22:16:49.980Z,21.27
2018-10-02T22:19:19.194Z,17.37
2018-10-02T22:21:48.483Z,20.50
2018-10-02T22:24:17.750Z,18.60
2018-10-02T22:26:46.983Z,18.53
2018-10-02T22:29:16.232Z,17.23
2018-10-02T22:31:45.726Z,14.60
2018-10-02T22:34:15.109Z,14.03
2018-10-02T22:36:44.347Z,19.30
2018-10-02T22:39:13.640Z,15.70
2018-10-02T22:41:42.889Z,17.07
2018-10-02T22:44:12.319Z,16.53
2018-10-02T22:46:41.656Z,16.00
2018-10-02T22:49:10.891Z,19.90
2018-10-02T22:51:40.142Z,17.97
2018-10-02T22:54:09.459Z,17.00
2018-10-02T22:56:39.509Z,19.40
2018-10-02T22:59:08.769Z,17.83
2018-10-02T23:01:37.995Z,21.30
2018-10-02T23:04:07.508Z,17.80
2018-10-02T23:06:36.904Z,18.40
2018-10-02T23:09:09.664Z,23.40
2018-10-02T23:11:38.920Z,22.57
2018-10-02T23:14:08.468Z,32.03
2018-10-02T23:16:37.719Z,18.20
2018-10-02T23:19:06.985Z,20.77
2018-10-02T23:21:36.220Z,19.60
2018-10-02T23:24:05.494Z,20.27
2018-10-02T23:26:34.951Z,14.87
2018-10-02T23:29:04.340Z,21.03
2018-10-02T23:31:33.819Z,18.00
2018-10-02T23:34:03.316Z,14.73
2018-10-02T23:36:32.549Z,13.63
2018-10-02T23:39:01.798Z,19.23
2018-10-02T23:41:31.026Z,16.10
2018-10-02T23:44:00.273Z,20.60
2018-10-02T23:46:29.715Z,18.30
2018-10-02T23:48:58.952Z,17.73
2018-10-02T23:51:28.213Z,18.97
2018-10-02T23:53:57.458Z,18.13
2018-10-02T23:56:26.686Z,13.80
2018-10-02T23:58:55.952Z,18.70
